Time;durP1;ratioP1;P1;durP2;ratioP2;P2;SDS_P1;SDS_P2;PMS_P1;PMS_P2;Temp;Humidity;BMP_temperature;BMP_pressure;BME280_temperature;BME280_humidity;BME280_pressure;Samples;Min_cycle;Max_cycle;Signal;HPM_P1;HPM_P2
2022/08/03 00:02:33;;;;;;;3.40;2.90;;;;;19.70;101007.00;;;;5042014;28;20359;-73
2022/08/03 00:05:20;;;;;;;4.27;2.60;;;;;19.50;101007.00;;;;5047309;28;20212;-72
2022/08/03 00:08:06;;;;;;;3.63;2.73;;;;;19.50;101002.00;;;;5047710;28;20221;-72
2022/08/03 00:10:54;;;;;;;4.47;2.60;;;;;19.60;101007.00;;;;5046061;28;20243;-72
2022/08/03 00:13:40;;;;;;;2.97;2.67;;;;;19.50;101014.00;;;;5045410;28;20760;-72
2022/08/03 00:16:26;;;;;;;3.20;2.83;;;;;19.40;101010.00;;;;5047572;28;20209;-72
2022/08/03 00:19:12;;;;;;;3.83;2.73;;;;;19.40;101010.00;;;;5042921;28;20348;-73
2022/08/03 00:21:58;;;;;;;3.37;3.07;;;;;19.40;101005.00;;;;5050840;28;20725;-72
2022/08/03 00:24:45;;;;;;;4.30;2.80;;;;;19.40;101007.00;;;;5051508;28;20225;-71
2022/08/03 00:27:33;;;;;;;4.23;3.10;;;;;19.40;101005.00;;;;5048914;28;20685;-72
2022/08/03 00:30:20;;;;;;;6.47;3.00;;;;;19.40;101000.00;;;;5046738;28;20221;-72
2022/08/03 00:33:11;;;;;;;5.20;2.83;;;;;19.30;100991.00;;;;5044664;28;20656;-72
2022/08/03 00:35:59;;;;;;;7.20;2.90;;;;;19.30;100993.00;;;;5049044;28;20208;-72
2022/08/03 00:38:45;;;;;;;3.43;2.70;;;;;19.30;100995.00;;;;5045583;28;20204;-72
2022/08/03 00:41:33;;;;;;;3.10;2.60;;;;;19.20;100990.00;;;;5048515;28;20233;-73
2022/08/03 00:44:20;;;;;;;3.40;3.03;;;;;19.10;100997.00;;;;5046636;28;20278;-73
2022/08/03 00:47:07;;;;;;;2.60;2.40;;;;;19.10;100986.00;;;;5045558;28;20208;-74
2022/08/03 00:49:53;;;;;;;4.33;2.90;;;;;19.30;100989.00;;;;5045563;28;20232;-74
2022/08/03 00:52:39;;;;;;;3.10;2.80;;;;;19.10;100990.00;;;;5049148;28;20236;-73
2022/08/03 00:55:26;;;;;;;7.17;3.00;;;;;19.20;100996.00;;;;5050792;28;20789;-72
2022/08/03 00:58:12;;;;;;;3.57;2.93;;;;;19.00;100989.00;;;;5047686;28;20213;-71
2022/08/03 01:01:00;;;;;;;3.20;2.90;;;;;19.10;100998.00;;;;5048494;28;20221;-72
2022/08/03 01:03:46;;;;;;;3.30;2.80;;;;;19.20;100995.00;;;;5051703;28;20740;-72
2022/08/03 01:06:41;;;;;;;3.10;2.67;;;;;19.20;100989.00;;;;5051068;28;20236;-72
2022/08/03 01:09:35;;;;;;;3.07;2.73;;;;;19.10;100985.00;;;;5048473;28;20647;-71
2022/08/03 01:12:28;;;;;;;3.67;2.70;;;;;18.90;100989.00;;;;5045621;28;20225;-72
2022/08/03 01:15:25;;;;;;;3.53;2.87;;;;;18.90;100985.00;;;;5046923;28;20217;-71
2022/08/03 01:18:18;;;;;;;3.70;3.00;;;;;18.80;100982.00;;;;5046179;28;20221;-71
2022/08/03 01:21:14;;;;;;;5.93;3.20;;;;;18.90;100982.00;;;;5045438;28;20216;-70
2022/08/03 01:24:13;;;;;;;3.20;2.90;;;;;18.70;100985.00;;;;5044480;28;20349;-72
2022/08/03 01:27:12;;;;;;;4.10;3.03;;;;;18.70;100990.00;;;;5044360;28;20289;-71
2022/08/03 01:30:05;;;;;;;3.37;2.80;;;;;18.80;100982.00;;;;5040749;28;20283;-73
2022/08/03 01:32:55;;;;;;;3.90;2.80;;;;;18.80;100980.00;;;;5042511;28;20302;-71
2022/08/03 01:35:54;;;;;;;5.90;3.10;;;;;18.70;100986.00;;;;5044476;28;20709;-71
2022/08/03 01:38:43;;;;;;;5.00;2.90;;;;;18.70;100982.00;;;;5040745;28;20260;-71
2022/08/03 01:41:35;;;;;;;3.40;2.70;;;;;18.70;100986.00;;;;5039338;28;20622;-71
2022/08/03 01:44:23;;;;;;;6.10;2.93;;;;;18.50;100972.00;;;;5045055;28;20616;-71
2022/08/03 01:47:20;;;;;;;4.40;2.80;;;;;18.70;100974.00;;;;5044808;28;20213;-72
2022/08/03 01:50:10;;;;;;;9.37;3.00;;;;;18.50;100966.00;;;;5045545;28;20221;-71
2022/08/03 01:52:58;;;;;;;3.90;3.17;;;;;18.60;100967.00;;;;5042391;28;20278;-71
2022/08/03 01:55:47;;;;;;;3.17;2.87;;;;;18.60;100967.00;;;;5045808;28;20220;-71
2022/08/03 01:58:36;;;;;;;3.80;3.03;;;;;18.60;100953.00;;;;5042748;28;20209;-71
2022/08/03 02:01:23;;;;;;;3.60;2.67;;;;;18.50;100963.00;;;;5051790;28;20225;-72
2022/08/03 02:04:31;;;;;;;3.40;2.73;;;;;18.40;100961.00;;;;5054856;28;20228;-71
2022/08/03 02:07:19;;;;;;;4.37;3.13;;;;;18.40;100958.00;;;;5050726;28;20212;-71
2022/08/03 02:10:07;;;;;;;3.53;3.00;;;;;18.40;100963.00;;;;5045735;28;20800;-71
2022/08/03 02:12:54;;;;;;;3.30;3.00;;;;;18.50;100956.00;;;;5044858;28;20396;-72
2022/08/03 02:15:41;;;;;;;5.50;3.53;;;;;18.40;100972.00;;;;5043203;28;20240;-72
2022/08/03 02:18:29;;;;;;;3.97;3.23;;;;;18.40;100973.00;;;;5049132;28;20582;-71
2022/08/03 02:21:17;;;;;;;6.33;3.73;;;;;18.40;100971.00;;;;5048317;28;20949;-72
2022/08/03 02:24:24;;;;;;;6.13;3.10;;;;;18.30;100967.00;;;;5046458;28;20368;-71
2022/08/03 02:27:19;;;;;;;3.50;3.00;;;;;18.30;100975.00;;;;5046805;28;20247;-73
2022/08/03 02:30:09;;;;;;;4.43;3.13;;;;;18.30;100969.00;;;;5039259;28;20230;-72
2022/08/03 02:32:57;;;;;;;6.63;3.60;;;;;18.20;100967.00;;;;5040697;28;20235;-72
2022/08/03 02:35:45;;;;;;;5.23;3.40;;;;;18.30;100969.00;;;;5042999;28;20272;-70
2022/08/03 02:38:35;;;;;;;4.03;3.00;;;;;18.30;100974.00;;;;5045888;28;20340;-71
2022/08/03 02:41:24;;;;;;;3.67;2.90;;;;;18.30;100971.00;;;;5049944;28;20788;-72
2022/08/03 02:44:13;;;;;;;4.40;3.13;;;;;18.40;100971.00;;;;5047560;28;20286;-71
2022/08/03 02:47:03;;;;;;;4.27;3.17;;;;;18.50;100962.00;;;;5042691;28;20256;-70
2022/08/03 02:49:51;;;;;;;6.73;3.43;;;;;18.40;100962.00;;;;5050571;28;20889;-70
2022/08/03 02:52:39;;;;;;;5.37;3.73;;;;;18.30;100957.00;;;;5050698;28;20704;-70
2022/08/03 02:55:28;;;;;;;6.83;3.47;;;;;18.30;100961.00;;;;5049252;28;20343;-70
2022/08/03 02:58:18;;;;;;;4.47;3.20;;;;;18.30;100960.00;;;;5046273;28;20298;-70
2022/08/03 03:01:06;;;;;;;4.10;3.53;;;;;18.30;100959.00;;;;5048910;28;20271;-71
2022/08/03 03:03:53;;;;;;;4.03;3.17;;;;;18.20;100961.00;;;;5045398;28;20701;-71
2022/08/03 03:06:41;;;;;;;3.27;2.97;;;;;18.20;100958.00;;;;5043368;28;20392;-71
2022/08/03 03:09:31;;;;;;;8.13;3.00;;;;;18.20;100953.00;;;;5048064;28;20216;-71
2022/08/03 03:12:31;;;;;;;4.43;3.33;;;;;18.10;100959.00;;;;5045502;28;20236;-71
2022/08/03 03:15:17;;;;;;;4.27;3.23;;;;;18.10;100953.00;;;;5048713;28;20291;-71
2022/08/03 03:18:05;;;;;;;3.87;3.30;;;;;18.20;100952.00;;;;5045316;28;20220;-72
2022/08/03 03:20:52;;;;;;;4.20;3.30;;;;;18.20;100963.00;;;;5049541;28;20212;-71
2022/08/03 03:23:41;;;;;;;4.37;3.50;;;;;18.20;100962.00;;;;5051051;28;20271;-71
2022/08/03 03:26:27;;;;;;;8.87;3.50;;;;;18.10;100955.00;;;;5047608;28;20225;-71
2022/08/03 03:29:16;;;;;;;4.43;3.53;;;;;18.10;100963.00;;;;5049464;28;20723;-70
2022/08/03 03:32:04;;;;;;;5.97;2.87;;;;;18.10;100963.00;;;;5044725;28;20306;-72
2022/08/03 03:34:55;;;;;;;7.17;3.33;;;;;18.10;100956.00;;;;5043389;28;20322;-71
2022/08/03 03:37:41;;;;;;;6.27;3.40;;;;;18.10;100954.00;;;;5046107;28;20339;-71
2022/08/03 03:40:28;;;;;;;5.23;3.43;;;;;18.00;100952.00;;;;5046799;28;20585;-71
2022/08/03 03:43:14;;;;;;;3.67;3.20;;;;;17.90;100955.00;;;;5048023;28;20248;-71
2022/08/03 03:46:02;;;;;;;51.95;26.30;;;;;18.00;100955.00;;;;5048244;28;20275;-72
2022/08/03 03:48:49;;;;;;;7.20;4.17;;;;;18.10;100962.00;;;;5051349;28;20339;-71
2022/08/03 03:51:35;;;;;;;4.93;3.53;;;;;18.00;100966.00;;;;5048786;28;20790;-73
2022/08/03 03:54:22;;;;;;;4.83;3.90;;;;;17.90;100958.00;;;;5046488;28;20216;-72
2022/08/03 03:57:14;;;;;;;4.87;3.70;;;;;17.90;100953.00;;;;5048001;28;20220;-71
2022/08/03 04:00:01;;;;;;;7.77;3.73;;;;;17.90;100957.00;;;;5045869;28;20213;-72
2022/08/03 04:02:48;;;;;;;4.70;3.60;;;;;17.90;100957.00;;;;5041523;28;20602;-71
2022/08/03 04:11:50;;;;;;;7.67;4.00;;;;;18.00;100956.00;;;;5040946;28;20344;-72
2022/08/03 04:14:38;;;;;;;8.43;3.80;;;;;18.00;100961.00;;;;5048248;28;20716;-74
2022/08/03 04:17:28;;;;;;;5.80;3.90;;;;;18.10;100962.00;;;;5050104;28;20693;-71
2022/08/03 04:20:18;;;;;;;4.63;3.77;;;;;18.00;100949.00;;;;5046627;28;20209;-71
2022/08/03 04:23:07;;;;;;;5.27;3.63;;;;;18.00;100951.00;;;;5043643;28;20240;-71
2022/08/03 04:26:02;;;;;;;6.73;3.67;;;;;18.00;100957.00;;;;5042924;28;20303;-72
2022/08/03 04:28:50;;;;;;;7.70;4.03;;;;;18.10;100949.00;;;;5052078;28;20208;-72
2022/08/03 04:31:38;;;;;;;5.30;3.97;;;;;18.10;100958.00;;;;5048080;28;20264;-72
2022/08/03 04:34:24;;;;;;;5.20;3.90;;;;;18.00;100956.00;;;;5046009;28;20335;-70
2022/08/03 04:37:18;;;;;;;5.67;3.93;;;;;18.00;100954.00;;;;5048532;28;20717;-71
2022/08/03 04:40:09;;;;;;;5.97;3.83;;;;;18.10;100958.00;;;;5042668;28;20295;-71
2022/08/03 04:42:56;;;;;;;5.43;3.83;;;;;18.10;100966.00;;;;5040432;28;20915;-71
2022/08/03 04:45:43;;;;;;;6.23;3.53;;;;;18.20;100967.00;;;;5046904;28;20224;-71
2022/08/03 04:48:30;;;;;;;5.80;3.90;;;;;18.20;100958.00;;;;5047941;28;20216;-73
2022/08/03 04:51:17;;;;;;;5.37;3.63;;;;;18.20;100961.00;;;;5044845;28;21970;-72
2022/08/03 04:54:06;;;;;;;5.53;4.00;;;;;18.30;100968.00;;;;5046421;28;20227;-71
2022/08/03 04:56:52;;;;;;;6.03;3.80;;;;;18.30;100962.00;;;;5039062;28;20274;-70
2022/08/03 04:59:39;;;;;;;4.87;3.87;;;;;18.30;100966.00;;;;5046771;28;20336;-72
2022/08/03 05:02:26;;;;;;;7.43;4.37;;;;;18.30;100967.00;;;;5049196;28;20223;-71
2022/08/03 05:05:12;;;;;;;7.07;3.87;;;;;18.40;100970.00;;;;5046867;28;20287;-71
2022/08/03 05:07:58;;;;;;;8.20;4.07;;;;;18.40;100967.00;;;;5045680;28;20213;-69
2022/08/03 05:10:50;;;;;;;7.40;3.93;;;;;18.50;100963.00;;;;5052536;28;20216;-70
2022/08/03 05:13:36;;;;;;;5.30;4.20;;;;;18.50;100960.00;;;;5045076;28;20208;-72
2022/08/03 05:16:24;;;;;;;6.30;4.00;;;;;18.60;100968.00;;;;5046284;28;20705;-70
2022/08/03 05:19:10;;;;;;;6.20;4.10;;;;;18.70;100974.00;;;;5038056;28;20200;-71
2022/08/03 05:21:57;;;;;;;5.93;4.10;;;;;18.80;100971.00;;;;5043810;28;20367;-71
2022/08/03 05:24:43;;;;;;;4.63;3.87;;;;;18.90;100968.00;;;;5047247;28;20910;-70
2022/08/03 05:27:31;;;;;;;5.17;4.00;;;;;18.90;100971.00;;;;5048948;28;20228;-71
2022/08/03 05:30:17;;;;;;;5.10;3.90;;;;;19.00;100967.00;;;;5047943;28;20295;-72
2022/08/03 05:33:19;;;;;;;7.03;4.30;;;;;19.20;100971.00;;;;5047299;28;20240;-73
2022/08/03 05:36:06;;;;;;;6.10;4.17;;;;;19.20;100968.00;;;;5046378;28;20697;-71
2022/08/03 05:38:52;;;;;;;6.47;3.73;;;;;19.30;100980.00;;;;5040940;28;20221;-70
2022/08/03 05:41:39;;;;;;;6.23;4.07;;;;;19.30;100967.00;;;;5046033;28;20231;-73
2022/08/03 05:44:27;;;;;;;6.30;4.00;;;;;19.40;100971.00;;;;5046165;28;20212;-72
2022/08/03 05:47:15;;;;;;;11.33;3.97;;;;;19.50;100973.00;;;;5044594;28;20311;-73
2022/08/03 05:50:01;;;;;;;5.87;4.27;;;;;19.60;100971.00;;;;5039996;28;20281;-73
2022/08/03 05:52:48;;;;;;;6.50;4.10;;;;;19.60;100974.00;;;;5044120;28;20232;-72
2022/08/03 05:55:35;;;;;;;7.90;4.70;;;;;19.80;100967.00;;;;5046768;28;20294;-73
2022/08/03 05:58:21;;;;;;;6.27;4.07;;;;;19.90;100976.00;;;;5043625;28;20294;-73
2022/08/03 06:01:09;;;;;;;7.20;4.50;;;;;20.00;100976.00;;;;5043745;28;20217;-73
2022/08/03 06:03:55;;;;;;;5.47;4.27;;;;;20.00;100966.00;;;;5040096;28;20209;-73
2022/08/03 06:06:42;;;;;;;7.27;4.53;;;;;20.10;100974.00;;;;5041459;28;20232;-72
2022/08/03 06:09:28;;;;;;;5.83;4.23;;;;;20.30;100976.00;;;;5043403;28;20686;-73
2022/08/03 06:12:35;;;;;;;6.77;3.90;;;;;20.50;100978.00;;;;5044792;28;20236;-73
2022/08/03 06:15:22;;;;;;;8.17;4.50;;;;;20.60;100970.00;;;;5044955;28;20260;-72
2022/08/03 06:18:10;;;;;;;5.17;4.20;;;;;20.60;100980.00;;;;5042339;28;20632;-73
2022/08/03 06:20:56;;;;;;;6.43;4.13;;;;;20.70;100979.00;;;;5040611;28;20279;-73
2022/08/03 06:23:44;;;;;;;8.80;4.10;;;;;20.80;100978.00;;;;5047481;28;20225;-72
2022/08/03 06:26:40;;;;;;;7.33;4.90;;;;;21.00;100981.00;;;;5046894;28;20232;-73
2022/08/03 06:29:27;;;;;;;7.63;4.23;;;;;21.10;100980.00;;;;5043158;28;20216;-73
2022/08/03 06:32:13;;;;;;;12.07;6.67;;;;;21.20;100986.00;;;;5042853;28;20230;-72
2022/08/03 06:35:01;;;;;;;12.63;5.00;;;;;21.20;100980.00;;;;5041144;28;20209;-72
2022/08/03 06:37:50;;;;;;;8.83;5.07;;;;;21.30;100985.00;;;;5046574;28;20313;-72
2022/08/03 06:40:38;;;;;;;10.27;4.70;;;;;21.40;100983.00;;;;5046036;28;20228;-72
2022/08/03 06:43:25;;;;;;;8.03;4.33;;;;;21.60;100974.00;;;;5047060;28;20215;-73
2022/08/03 06:46:11;;;;;;;8.63;4.80;;;;;21.70;100983.00;;;;5040695;28;20263;-72
2022/08/03 06:48:57;;;;;;;7.03;4.60;;;;;21.80;100984.00;;;;5049192;28;20218;-73
2022/08/03 06:51:45;;;;;;;12.30;5.40;;;;;21.80;100981.00;;;;5049345;28;20582;-74
2022/08/03 06:54:51;;;;;;;11.43;4.97;;;;;21.90;100972.00;;;;5050482;28;20209;-73
2022/08/03 06:57:37;;;;;;;16.03;4.90;;;;;22.00;100975.00;;;;5047083;28;20706;-72
2022/08/03 07:00:25;;;;;;;8.17;4.80;;;;;22.00;100988.00;;;;5049826;28;20215;-74
2022/08/03 07:03:11;;;;;;;12.20;4.87;;;;;22.10;100980.00;;;;5046813;28;20235;-72
2022/08/03 07:05:57;;;;;;;9.03;4.60;;;;;22.20;100981.00;;;;5045661;28;20953;-71
2022/08/03 07:08:44;;;;;;;9.30;4.63;;;;;22.30;100976.00;;;;5049416;28;20755;-72
2022/08/03 07:11:30;;;;;;;7.83;4.63;;;;;22.50;100981.00;;;;5045562;28;20612;-75
2022/08/03 07:14:17;;;;;;;8.13;4.30;;;;;22.60;100980.00;;;;5047337;28;20214;-72
2022/08/03 07:17:03;;;;;;;15.63;9.97;;;;;22.60;100984.00;;;;5053200;28;20354;-72
2022/08/03 07:19:56;;;;;;;10.40;4.97;;;;;22.80;100986.00;;;;5050073;28;20754;-72
2022/08/03 07:22:42;;;;;;;5.70;3.60;;;;;22.90;100986.00;;;;5044544;28;20310;-71
2022/08/03 07:25:30;;;;;;;20.20;3.73;;;;;23.00;100998.00;;;;5046408;28;20243;-71
2022/08/03 07:28:16;;;;;;;9.53;3.67;;;;;23.00;100991.00;;;;5044892;28;20235;-72
2022/08/03 07:31:02;;;;;;;10.80;3.30;;;;;23.20;100995.00;;;;5044084;28;20772;-72
2022/08/03 07:33:48;;;;;;;5.67;2.80;;;;;23.40;101000.00;;;;5048934;28;20717;-73
2022/08/03 07:36:35;;;;;;;5.97;2.80;;;;;23.50;100994.00;;;;5048158;28;20211;-73
2022/08/03 07:39:21;;;;;;;9.40;5.33;;;;;23.50;100999.00;;;;5048889;28;20251;-72
2022/08/03 07:42:08;;;;;;;10.87;3.63;;;;;23.60;100996.00;;;;5048558;28;20366;-72
2022/08/03 07:44:55;;;;;;;4.53;2.70;;;;;23.70;100992.00;;;;5049636;28;20216;-72
2022/08/03 07:47:41;;;;;;;7.40;2.70;;;;;23.80;100998.00;;;;5046476;28;20874;-73
2022/08/03 07:50:38;;;;;;;7.00;2.60;;;;;23.90;101002.00;;;;5052999;28;20209;-74
2022/08/03 07:53:25;;;;;;;7.13;2.90;;;;;23.90;101000.00;;;;5045288;28;20569;-72
2022/08/03 07:56:12;;;;;;;4.63;2.50;;;;;24.10;100997.00;;;;5045704;28;20608;-73
2022/08/03 07:59:01;;;;;;;7.37;2.97;;;;;24.10;100994.00;;;;5046454;28;20255;-73
2022/08/03 08:01:47;;;;;;;8.43;2.63;;;;;24.00;100994.00;;;;5047713;28;20633;-75
2022/08/03 08:04:33;;;;;;;10.03;3.00;;;;;24.00;101004.00;;;;5053350;28;20221;-74
2022/08/03 08:07:19;;;;;;;4.80;2.63;;;;;24.10;101006.00;;;;5052807;28;20232;-74
2022/08/03 08:10:08;;;;;;;6.10;3.00;;;;;24.20;101010.00;;;;5050900;28;20313;-74
2022/08/03 08:12:55;;;;;;;5.50;2.50;;;;;24.30;101010.00;;;;5047514;28;20236;-74
2022/08/03 08:15:43;;;;;;;7.57;2.83;;;;;24.40;101007.00;;;;5046195;28;20271;-73
2022/08/03 08:18:33;;;;;;;6.67;2.90;;;;;24.40;100996.00;;;;5047507;28;20217;-74
2022/08/03 08:21:19;;;;;;;4.93;2.37;;;;;24.50;101004.00;;;;5045300;28;20224;-72
2022/08/03 08:24:07;;;;;;;3.87;2.57;;;;;24.90;100995.00;;;;5044179;28;20343;-75
2022/08/03 08:27:03;;;;;;;5.50;2.70;;;;;25.00;100997.00;;;;5051350;28;20232;-72
2022/08/03 08:29:50;;;;;;;5.53;2.50;;;;;25.20;101008.00;;;;5048591;28;20220;-72
2022/08/03 08:32:43;;;;;;;4.47;2.53;;;;;25.50;100997.00;;;;5043824;28;20233;-72
2022/08/03 08:35:29;;;;;;;6.03;2.70;;;;;25.60;101006.00;;;;5051451;28;20217;-72
2022/08/03 08:38:15;;;;;;;4.43;2.40;;;;;25.60;101002.00;;;;5047310;28;20220;-73
2022/08/03 08:41:01;;;;;;;7.63;2.60;;;;;25.70;101007.00;;;;5046145;28;20208;-72
2022/08/03 08:43:48;;;;;;;6.57;2.67;;;;;25.80;101001.00;;;;5048365;28;20321;-72
2022/08/03 08:46:34;;;;;;;5.50;2.53;;;;;26.10;101008.00;;;;5042617;28;20572;-72
2022/08/03 08:49:25;;;;;;;4.60;2.60;;;;;26.20;101010.00;;;;5042376;28;20217;-73
2022/08/03 08:52:14;;;;;;;5.83;2.70;;;;;26.20;101001.00;;;;5040766;28;20233;-72
2022/08/03 08:55:19;;;;;;;5.37;2.93;;;;;26.30;101007.00;;;;5042458;28;20236;-72
2022/08/03 08:58:06;;;;;;;6.83;4.17;;;;;26.60;101016.00;;;;5044654;28;20765;-73
2022/08/03 09:00:52;;;;;;;4.97;3.00;;;;;26.80;101010.00;;;;5047095;28;20221;-72
2022/08/03 09:03:39;;;;;;;4.37;2.80;;;;;26.80;101004.00;;;;5053117;28;20215;-73
2022/08/03 09:06:26;;;;;;;4.70;2.70;;;;;26.70;101015.00;;;;5043320;28;20241;-74
2022/08/03 09:09:12;;;;;;;5.53;2.50;;;;;26.60;101005.00;;;;5046441;28;20706;-78
2022/08/03 09:12:19;;;;;;;8.70;2.73;;;;;26.60;101007.00;;;;5041458;28;20315;-73
2022/08/03 09:15:26;;;;;;;4.67;2.60;;;;;26.90;101012.00;;;;5047735;28;20228;-73
2022/08/03 09:18:14;;;;;;;6.47;2.07;;;;;27.00;101011.00;;;;5041227;28;20332;-73
2022/08/03 09:21:13;;;;;;;5.20;2.33;;;;;27.30;101014.00;;;;5041279;28;20323;-73
2022/08/03 09:24:22;;;;;;;7.13;2.40;;;;;27.50;101010.00;;;;5042951;28;20231;-75
2022/08/03 09:27:26;;;;;;;7.17;2.60;;;;;27.50;101002.00;;;;5045718;28;20220;-72
2022/08/03 09:30:15;;;;;;;4.80;2.37;;;;;27.70;101002.00;;;;5047702;28;20634;-72
2022/08/03 09:33:20;;;;;;;5.55;2.28;;;;;28.00;101007.00;;;;5049795;28;20896;-72
2022/08/03 09:36:06;;;;;;;3.53;2.50;;;;;28.20;101009.00;;;;5040262;28;20216;-71
2022/08/03 09:39:03;;;;;;;6.03;2.97;;;;;28.40;101006.00;;;;5047458;28;20212;-72
2022/08/03 09:42:06;;;;;;;4.95;2.60;;;;;28.40;101005.00;;;;5049404;28;20244;-72
2022/08/03 09:44:52;;;;;;;4.82;2.85;;;;;28.40;101003.00;;;;5045048;28;20217;-74
2022/08/03 09:47:39;;;;;;;12.05;2.92;;;;;28.50;101005.00;;;;5043778;28;20209;-72
2022/08/03 09:50:47;;;;;;;3.80;2.33;;;;;29.10;101008.00;;;;5044058;28;20295;-72
2022/08/03 09:53:58;;;;;;;8.18;2.70;;;;;29.10;101010.00;;;;5045274;28;20273;-72
2022/08/03 09:56:46;;;;;;;8.02;4.10;;;;;28.90;101011.00;;;;5047535;28;20221;-73
2022/08/03 09:59:34;;;;;;;8.57;3.40;;;;;29.10;101016.00;;;;5044200;28;20205;-72
2022/08/03 10:02:25;;;;;;;10.38;2.65;;;;;28.90;101016.00;;;;5046505;28;20233;-71
2022/08/03 10:05:13;;;;;;;7.63;2.45;;;;;28.90;101009.00;;;;5050743;28;20333;-72
2022/08/03 10:08:14;;;;;;;4.88;2.55;;;;;29.00;101013.00;;;;5046682;28;20228;-72
2022/08/03 10:11:01;;;;;;;6.25;2.33;;;;;28.90;101015.00;;;;5055772;28;20216;-71
2022/08/03 10:13:47;;;;;;;7.05;3.08;;;;;28.90;101017.00;;;;5052793;28;20737;-73
2022/08/03 10:16:36;;;;;;;5.60;2.20;;;;;28.90;101005.00;;;;5052614;28;20279;-75
2022/08/03 10:19:24;;;;;;;5.20;2.35;;;;;28.90;101016.00;;;;5049199;28;20331;-73
2022/08/03 10:22:14;;;;;;;8.57;2.35;;;;;28.80;101011.00;;;;5049280;28;20236;-72
2022/08/03 10:25:04;;;;;;;5.00;2.42;;;;;28.60;101010.00;;;;5053583;28;20320;-74
2022/08/03 10:27:52;;;;;;;7.70;2.35;;;;;29.00;101005.00;;;;5051860;28;20208;-73
2022/08/03 10:30:43;;;;;;;6.00;2.70;;;;;29.20;101011.00;;;;5046329;28;20420;-72
2022/08/03 10:33:35;;;;;;;6.03;2.50;;;;;29.20;101008.00;;;;5049314;28;20216;-73
2022/08/03 10:36:39;;;;;;;4.35;2.30;;;;;29.20;101006.00;;;;5053878;28;20294;-73
2022/08/03 10:39:29;;;;;;;8.98;2.55;;;;;29.50;100996.00;;;;5059555;28;20303;-73
2022/08/03 10:42:15;;;;;;;4.88;2.42;;;;;29.70;100996.00;;;;5063495;28;20223;-73
2022/08/03 10:45:06;;;;;;;5.63;2.40;;;;;30.00;100988.00;;;;5066559;28;20550;-74
2022/08/03 10:47:55;;;;;;;7.18;2.58;;;;;30.40;101001.00;;;;5055198;28;20213;-72
2022/08/03 10:50:43;;;;;;;7.28;2.10;;;;;30.30;100988.00;;;;5057278;28;20696;-74
2022/08/03 10:53:37;;;;;;;8.73;2.15;;;;;30.40;100985.00;;;;5059657;28;20259;-74
2022/08/03 11:00:01;;;;;;;8.23;2.08;;;;;30.40;100983.00;;;;5051173;28;20221;-75
2022/08/03 11:03:08;;;;;;;4.28;2.03;;;;;30.50;100982.00;;;;5051669;28;21003;-73
2022/08/03 11:06:17;;;;;;;2.97;1.52;;;;;30.90;100974.00;;;;5048436;28;20627;-74
2022/08/03 11:09:15;;;;;;;2.95;1.70;;;;;30.90;100982.00;;;;5051054;28;20232;-72
2022/08/03 11:12:21;;;;;;;4.93;1.75;;;;;30.80;100974.00;;;;5047978;28;20240;-74
2022/08/03 11:15:32;;;;;;;6.60;1.73;;;;;31.00;100984.00;;;;5049376;28;20220;-72
2022/08/03 11:18:18;;;;;;;10.30;2.22;;;;;31.30;100977.00;;;;5059282;28;20223;-72
2022/08/03 11:21:06;;;;;;;8.60;1.90;;;;;31.40;100967.00;;;;5045958;28;20236;-73
2022/08/03 11:23:52;;;;;;;6.03;1.70;;;;;31.40;100964.00;;;;5050920;28;20227;-72
2022/08/03 11:27:20;;;;;;;5.47;1.70;;;;;31.40;100973.00;;;;5046478;28;20209;-72
2022/08/03 11:30:09;;;;;;;3.50;1.83;;;;;31.50;100978.00;;;;5048371;28;20290;-74
2022/08/03 11:33:00;;;;;;;4.50;1.73;;;;;31.70;100980.00;;;;5045640;28;20595;-73
2022/08/03 11:35:59;;;;;;;4.97;1.70;;;;;31.90;100976.00;;;;5045982;28;20362;-72
2022/08/03 11:39:12;;;;;;;4.78;2.05;;;;;32.20;100986.00;;;;5045131;28;20213;-73
2022/08/03 11:42:45;;;;;;;2.30;1.70;;;;;32.40;100982.00;;;;5044617;28;20261;-72
2022/08/03 11:45:32;;;;;;;5.57;1.90;;;;;32.60;100980.00;;;;5043001;28;20224;-74
2022/08/03 11:48:18;;;;;;;3.75;1.67;;;;;32.60;100980.00;;;;5044783;28;20275;-72
2022/08/03 11:51:07;;;;;;;4.78;1.70;;;;;32.40;100973.00;;;;5044038;28;20213;-73
2022/08/03 11:53:55;;;;;;;7.72;1.73;;;;;32.30;100977.00;;;;5043943;28;20220;-73
2022/08/03 11:56:45;;;;;;;7.75;1.70;;;;;32.30;100972.00;;;;5045222;28;20733;-72
2022/08/03 11:59:34;;;;;;;2.90;1.80;;;;;32.50;100969.00;;;;5041145;28;20213;-73
2022/08/03 12:02:20;;;;;;;5.95;1.65;;;;;32.10;100977.00;;;;5051823;28;20244;-73
2022/08/03 12:05:07;;;;;;;10.45;5.95;;;;;32.50;100976.00;;;;5046018;28;20240;-73
2022/08/03 12:07:53;;;;;;;3.80;2.95;;;;;32.60;100978.00;;;;5046374;28;20331;-72
2022/08/03 12:10:51;;;;;;;3.40;1.80;;;;;32.80;100991.00;;;;5043777;28;20427;-72
2022/08/03 12:13:39;;;;;;;2.95;1.50;;;;;32.80;100988.00;;;;5048654;28;20700;-73
2022/08/03 12:16:48;;;;;;;10.98;1.77;;;;;32.90;100978.00;;;;5045099;28;20209;-76
2022/08/03 12:19:42;;;;;;;5.10;1.40;;;;;33.10;100985.00;;;;5048026;28;20700;-74
2022/08/03 12:22:32;;;;;;;5.72;1.52;;;;;33.60;100982.00;;;;5037225;28;20225;-72
2022/08/03 12:25:24;;;;;;;3.88;1.42;;;;;33.70;100973.00;;;;5047854;28;20220;-73
2022/08/03 12:28:24;;;;;;;6.22;1.80;;;;;34.00;100966.00;;;;5047134;28;20225;-72
2022/08/03 12:31:22;;;;;;;5.35;1.70;;;;;34.00;100970.00;;;;5044247;28;20221;-72
2022/08/03 12:34:10;;;;;;;2.55;1.52;;;;;34.30;100968.00;;;;5045103;28;20621;-73
2022/08/03 12:36:56;;;;;;;4.40;1.73;;;;;34.20;100967.00;;;;5047351;28;20213;-72
2022/08/03 12:39:49;;;;;;;7.15;1.50;;;;;33.90;100962.00;;;;5044055;28;20213;-73
2022/08/03 12:42:52;;;;;;;3.00;1.55;;;;;33.50;100961.00;;;;5043127;28;20241;-72
2022/08/03 12:45:38;;;;;;;5.22;1.80;;;;;33.50;100959.00;;;;5046823;28;20295;-72
2022/08/03 12:48:24;;;;;;;6.03;1.50;;;;;33.70;100965.00;;;;5048022;28;20263;-72
2022/08/03 12:51:14;;;;;;;5.80;1.77;;;;;33.90;100965.00;;;;5047038;28;20230;-72
2022/08/03 12:54:01;;;;;;;6.38;1.63;;;;;33.70;100961.00;;;;5047432;28;20271;-73
2022/08/03 12:56:58;;;;;;;3.13;1.60;;;;;34.10;100964.00;;;;5048523;28;20209;-73
2022/08/03 12:59:47;;;;;;;5.35;1.50;;;;;34.50;100965.00;;;;5043123;28;20339;-72
2022/08/03 13:02:38;;;;;;;4.07;1.38;;;;;34.40;100962.00;;;;5046915;28;20272;-73
2022/08/03 13:05:32;;;;;;;6.90;1.50;;;;;34.40;100967.00;;;;5045051;28;20221;-72
2022/08/03 13:08:21;;;;;;;8.20;1.67;;;;;34.30;100958.00;;;;5047832;28;20726;-73
2022/08/03 13:11:21;;;;;;;11.18;3.25;;;;;34.80;100959.00;;;;5045624;28;20604;-74
2022/08/03 13:14:28;;;;;;;5.30;1.60;;;;;34.90;100958.00;;;;5045741;28;20224;-72
2022/08/03 13:17:16;;;;;;;3.35;1.40;;;;;35.20;100964.00;;;;5047856;28;20201;-72
2022/08/03 13:20:04;;;;;;;5.63;1.70;;;;;35.30;100962.00;;;;5045321;28;20219;-72
2022/08/03 13:22:51;;;;;;;2.58;1.33;;;;;35.30;100965.00;;;;5045770;28;20229;-72
2022/08/03 13:25:39;;;;;;;6.40;1.58;;;;;35.20;100967.00;;;;5047368;28;20774;-72
2022/08/03 13:28:41;;;;;;;6.30;1.25;;;;;35.30;100961.00;;;;5043133;28;20258;-73
2022/08/03 13:31:27;;;;;;;3.05;1.67;;;;;35.40;100959.00;;;;5046462;28;20228;-72
2022/08/03 13:34:13;;;;;;;4.90;1.77;;;;;35.20;100955.00;;;;5049265;28;20283;-72
2022/08/03 13:37:00;;;;;;;3.90;1.60;;;;;35.20;100963.00;;;;5044665;28;20220;-74
2022/08/03 13:40:07;;;;;;;5.47;1.60;;;;;35.00;100956.00;;;;5047355;28;20605;-74
2022/08/03 13:42:58;;;;;;;7.90;1.33;;;;;34.90;100957.00;;;;5047290;28;20235;-73
2022/08/03 13:45:44;;;;;;;8.20;1.50;;;;;35.00;100952.00;;;;5043021;28;20209;-74
2022/08/03 13:48:38;;;;;;;5.80;1.42;;;;;35.50;100952.00;;;;5042352;28;20697;-74
2022/08/03 13:51:24;;;;;;;2.70;1.50;;;;;35.50;100945.00;;;;5046680;28;20223;-73
2022/08/03 13:54:12;;;;;;;4.20;1.48;;;;;35.80;100944.00;;;;5047309;28;20228;-74
2022/08/03 13:56:58;;;;;;;5.57;1.48;;;;;35.90;100946.00;;;;5050909;28;20208;-74
2022/08/03 14:00:07;;;;;;;2.35;1.33;;;;;35.90;100946.00;;;;5051066;28;20243;-75
2022/08/03 14:02:53;;;;;;;3.08;1.30;;;;;35.70;100938.00;;;;5048050;28;20351;-73
2022/08/03 14:05:49;;;;;;;2.92;1.33;;;;;36.00;100938.00;;;;5048550;28;20208;-74
2022/08/03 14:08:35;;;;;;;4.22;1.80;;;;;36.20;100933.00;;;;5046233;28;20359;-73
2022/08/03 14:11:22;;;;;;;2.40;1.60;;;;;36.00;100934.00;;;;5042725;28;20314;-73
2022/08/03 14:14:28;;;;;;;3.90;1.60;;;;;35.80;100934.00;;;;5051138;28;20232;-73